Time;durP1;ratioP1;P1;durP2;ratioP2;P2;SDS_P1;SDS_P2;PMS_P1;PMS_P2;Temp;Humidity;BMP_temperature;BMP_pressure;BME280_temperature;BME280_humidity;BME280_pressure;Samples;Min_cycle;Max_cycle;Signal;HPM_P1;HPM_P2
2022/05/17 00:00:06;;;;;;;2.58;2.38;;;;;;;14.71;74.53;63515.88;5002654;28;20230;-76
2022/05/17 00:02:33;;;;;;;2.55;2.35;;;;;;;14.73;74.29;63522.56;4993934;28;20266;-75
2022/05/17 00:05:00;;;;;;;2.90;2.50;;;;;;;14.71;74.25;63521.00;5003505;28;20234;-76
2022/05/17 00:07:27;;;;;;;2.78;2.35;;;;;;;14.73;73.54;63517.94;5005507;28;20214;-75
2022/05/17 00:09:55;;;;;;;2.70;2.15;;;;;;;14.71;73.53;63515.88;5004598;28;20215;-75
2022/05/17 00:12:22;;;;;;;4.05;2.65;;;;;;;14.69;73.92;63515.84;5004867;28;20199;-75
2022/05/17 00:14:48;;;;;;;2.70;2.15;;;;;;;14.78;73.69;63522.63;5003616;28;20245;-75
2022/05/17 00:17:16;;;;;;;2.50;2.30;;;;;;;14.86;73.24;63530.94;5004548;28;20512;-74
2022/05/17 00:19:44;;;;;;;2.45;2.30;;;;;;;14.87;72.77;63531.97;5004438;28;20229;-74
2022/05/17 00:22:11;;;;;;;2.35;2.15;;;;;;;14.83;73.02;63528.34;5004685;28;20199;-75
2022/05/17 00:24:38;;;;;;;2.50;2.30;;;;;;;14.89;72.74;63536.63;4989120;28;20247;-75
2022/05/17 00:27:08;;;;;;;3.83;2.40;;;;;;;14.87;72.52;63535.06;4985356;28;20227;-74
2022/05/17 00:29:35;;;;;;;2.50;2.30;;;;;;;14.92;71.57;63539.72;4985517;28;20218;-76
2022/05/17 00:32:03;;;;;;;2.53;2.35;;;;;;;15.01;71.31;63551.66;4998675;28;20437;-75
2022/05/17 00:34:31;;;;;;;2.63;2.38;;;;;;;15.02;71.15;63547.56;5004299;28;20234;-75
2022/05/17 00:36:57;;;;;;;2.85;2.53;;;;;;;14.99;71.70;63541.88;5009977;28;20191;-75
2022/05/17 00:39:24;;;;;;;2.80;2.60;;;;;;;14.98;72.14;63543.41;5010470;28;20215;-75
2022/05/17 00:41:51;;;;;;;3.72;2.67;;;;;;;15.03;71.69;63556.28;5005310;28;20199;-75
2022/05/17 00:47:10;;;;;;;3.38;3.17;;;;;;;14.85;73.92;63532.97;5004548;28;20264;-75
2022/05/17 00:49:40;;;;;;;2.65;2.45;;;;;;;14.69;75.91;63518.91;5005660;28;20219;-75
2022/05/17 00:52:12;;;;;;;3.80;3.50;;;;;;;14.65;76.87;63517.31;5002518;28;20203;-75
2022/05/17 00:54:41;;;;;;;2.83;2.72;;;;;;;14.65;77.02;63509.63;5001957;28;20230;-75
2022/05/17 00:57:15;;;;;;;2.95;2.47;;;;;;;14.60;77.51;63507.00;5003625;28;20250;-75
2022/05/17 00:59:44;;;;;;;7.82;2.70;;;;;;;14.60;76.26;63506.50;5002446;28;20227;-75
2022/05/17 01:02:12;;;;;;;2.70;2.58;;;;;;;14.46;78.30;63489.38;5000495;28;20372;-76
2022/05/17 01:04:40;;;;;;;3.50;2.70;;;;;;;14.43;78.53;63486.25;5003488;28;20465;-75
2022/05/17 01:07:11;;;;;;;2.63;2.42;;;;;;;14.34;78.85;63482.56;5003967;28;20234;-75
2022/05/17 01:09:38;;;;;;;5.82;2.83;;;;;;;14.33;79.36;63478.44;5000228;28;20223;-76
2022/05/17 01:12:06;;;;;;;2.70;2.60;;;;;;;14.28;80.18;63468.66;5004070;28;20205;-76
2022/05/17 01:17:18;;;;;;;2.47;2.38;;;;;;;14.18;80.52;63460.28;5005159;28;20191;-76
2022/05/17 01:19:45;;;;;;;3.28;2.63;;;;;;;14.13;81.02;63460.75;5002846;28;20237;-75
2022/05/17 01:22:14;;;;;;;2.83;2.63;;;;;;;14.07;80.02;63449.38;5004425;28;20206;-76
2022/05/17 01:24:41;;;;;;;3.45;2.72;;;;;;;14.04;80.78;63451.41;5003648;28;20219;-76
2022/05/17 01:27:13;;;;;;;3.50;2.13;;;;;;;14.03;80.85;63444.72;5002220;28;20258;-77
2022/05/17 01:29:42;;;;;;;3.33;2.80;;;;;;;13.96;81.25;63440.00;5003807;28;20223;-77
2022/05/17 01:32:11;;;;;;;2.95;2.63;;;;;;;13.97;80.98;63444.13;5003510;28;20195;-76
2022/05/17 01:34:39;;;;;;;3.50;2.60;;;;;;;13.89;80.94;63431.22;5003776;28;20215;-77
2022/05/17 01:37:08;;;;;;;2.83;2.63;;;;;;;13.91;80.86;63435.84;5001942;28;20199;-77
2022/05/17 01:39:36;;;;;;;3.05;2.85;;;;;;;13.90;81.76;63434.81;5003586;28;20219;-77
2022/05/17 01:42:05;;;;;;;2.70;2.40;;;;;;;13.87;82.46;63433.75;5003633;28;20195;-77
2022/05/17 01:44:32;;;;;;;2.88;2.65;;;;;;;13.79;81.82;63420.84;5003442;28;20424;-77
2022/05/17 01:46:59;;;;;;;3.72;3.13;;;;;;;13.73;82.42;63414.63;5002247;28;20297;-76
2022/05/17 01:49:26;;;;;;;2.60;2.40;;;;;;;13.70;82.98;63414.06;5003841;28;20231;-75
2022/05/17 01:51:53;;;;;;;4.22;2.67;;;;;;;13.80;83.25;63421.38;5003380;28;20203;-76
2022/05/17 01:54:20;;;;;;;3.55;2.47;;;;;;;13.69;83.02;63409.94;5004526;28;20219;-76
2022/05/17 01:56:48;;;;;;;2.67;2.58;;;;;;;13.71;82.25;63409.47;5005624;28;20206;-76
2022/05/17 01:59:15;;;;;;;2.63;2.30;;;;;;;13.70;81.79;63413.53;5003339;28;20448;-76
2022/05/17 02:01:42;;;;;;;5.25;2.55;;;;;;;13.64;82.71;63410.41;5003677;28;20199;-75
2022/05/17 02:04:09;;;;;;;2.42;2.33;;;;;;;13.66;82.80;63409.38;5001458;28;20407;-76
2022/05/17 02:06:35;;;;;;;3.55;3.00;;;;;;;13.75;82.37;63416.69;5002799;28;20287;-77
2022/05/17 02:09:03;;;;;;;3.35;3.05;;;;;;;13.68;83.04;63409.41;5004261;28;20243;-77
2022/05/17 02:11:30;;;;;;;3.45;3.20;;;;;;;13.68;84.00;63408.91;5008254;28;20207;-76
2022/05/17 02:13:58;;;;;;;6.43;3.45;;;;;;;13.57;84.46;63400.56;5005472;28;20278;-76
2022/05/17 02:16:25;;;;;;;4.45;3.45;;;;;;;13.62;84.56;63403.19;5007426;28;20235;-76
2022/05/17 02:18:52;;;;;;;2.95;2.75;;;;;;;13.64;85.15;63407.31;5007217;28;20204;-75
2022/05/17 02:21:18;;;;;;;5.45;3.30;;;;;;;13.58;84.97;63403.66;5005126;28;20230;-76
2022/05/17 02:23:45;;;;;;;5.00;3.30;;;;;;;13.60;84.81;63401.13;5007440;28;20210;-76
2022/05/17 02:26:12;;;;;;;3.15;2.88;;;;;;;13.56;84.95;63396.97;5006334;28;20233;-75
2022/05/17 02:28:42;;;;;;;3.72;2.88;;;;;;;13.57;85.31;63398.00;4996808;28;20208;-75
2022/05/17 02:31:12;;;;;;;2.90;2.72;;;;;;;13.56;85.36;63396.97;4995748;28;20223;-76
2022/05/17 02:33:38;;;;;;;2.83;2.70;;;;;;;13.55;85.83;63398.50;5008446;28;20399;-75
2022/05/17 02:36:06;;;;;;;5.15;3.00;;;;;;;13.52;85.88;63397.41;5006092;28;20234;-75
2022/05/17 02:38:32;;;;;;;3.55;3.03;;;;;;;13.45;86.00;63387.59;5009440;28;20207;-76
2022/05/17 02:40:59;;;;;;;2.92;2.67;;;;;;;13.41;85.85;63381.41;5004987;28;20234;-75
2022/05/17 02:43:26;;;;;;;2.80;2.60;;;;;;;13.39;86.06;63379.31;5007003;28;20199;-76
2022/05/17 02:45:54;;;;;;;3.28;3.08;;;;;;;13.36;85.89;63378.25;5003861;28;20225;-76
2022/05/17 02:48:22;;;;;;;4.10;3.10;;;;;;;13.34;87.21;63376.19;4987859;28;20207;-75
2022/05/17 02:50:49;;;;;;;3.50;3.03;;;;;;;13.24;87.46;63363.25;5006205;28;20274;-76
2022/05/17 02:53:16;;;;;;;5.78;4.20;;;;;;;13.23;87.23;63367.31;5006379;28;20199;-75
2022/05/17 02:55:43;;;;;;;4.07;3.30;;;;;;;13.19;87.16;63361.13;4998138;28;20245;-75
2022/05/17 02:58:10;;;;;;;4.05;3.30;;;;;;;13.17;87.90;63355.97;5000683;28;20214;-75
2022/05/17 03:00:36;;;;;;;3.10;2.90;;;;;;;12.92;90.42;63333.13;5005969;28;20224;-76
2022/05/17 03:03:03;;;;;;;4.75;3.17;;;;;;;12.78;92.02;63314.00;5006322;28;20630;-76
2022/05/17 03:05:32;;;;;;;3.28;3.08;;;;;;;12.82;92.38;63322.75;5007448;28;20270;-76
2022/05/17 03:07:59;;;;;;;2.83;2.63;;;;;;;12.80;93.01;63325.78;5003713;28;20238;-75
2022/05/17 03:10:26;;;;;;;3.58;2.88;;;;;;;12.77;92.93;63315.50;5006428;28;20592;-77
2022/05/17 03:12:53;;;;;;;8.50;7.57;;;;;;;12.73;93.39;63319.03;5006735;28;20199;-77
2022/05/17 03:15:21;;;;;;;4.35;3.20;;;;;;;12.71;93.62;63308.78;5004795;28;20227;-75
2022/05/17 03:17:48;;;;;;;4.10;3.72;;;;;;;12.75;93.70;63321.09;5004376;28;20207;-75
2022/05/17 03:20:15;;;;;;;2.90;2.70;;;;;;;12.76;93.98;63317.03;5003591;28;20657;-74
2022/05/17 03:22:44;;;;;;;3.70;3.50;;;;;;;12.78;94.01;63319.13;5011806;28;20195;-74
2022/05/17 03:25:11;;;;;;;30.65;6.85;;;;;;;12.78;93.81;63318.59;5019449;28;20263;-73
2022/05/17 03:27:38;;;;;;;3.65;3.42;;;;;;;12.88;93.85;63333.56;5026196;28;20234;-75
2022/05/17 03:30:06;;;;;;;36.50;25.85;;;;;;;12.95;93.30;63338.78;5007718;28;20341;-74
2022/05/17 03:32:33;;;;;;;19.48;13.00;;;;;;;13.04;92.75;63347.63;5008676;28;20203;-73
2022/05/17 03:35:00;;;;;;;25.85;16.20;;;;;;;13.08;91.21;63346.66;5004117;28;20231;-74
2022/05/17 03:37:27;;;;;;;9.55;4.72;;;;;;;13.20;91.13;63359.63;5019262;28;20217;-75
2022/05/17 03:39:56;;;;;;;6.10;3.08;;;;;;;13.29;90.46;63368.94;5026586;28;20581;-74
2022/05/17 03:42:23;;;;;;;5.15;3.35;;;;;;;13.40;90.60;63385.50;5023576;28;20278;-74
2022/05/17 03:44:50;;;;;;;3.22;3.03;;;;;;;13.52;91.04;63392.31;5006287;28;20235;-74
2022/05/17 03:47:17;;;;;;;5.63;3.58;;;;;;;13.57;90.73;63400.03;5007174;28;20443;-74
2022/05/17 03:49:44;;;;;;;4.72;3.60;;;;;;;13.66;90.55;63407.34;5006630;28;20247;-74
2022/05/17 03:52:11;;;;;;;3.67;3.40;;;;;;;13.82;90.30;63423.44;5001816;28;20212;-74
2022/05/17 03:54:39;;;;;;;3.25;3.00;;;;;;;13.92;90.08;63433.81;5006919;28;20219;-74
2022/05/17 03:57:08;;;;;;;7.00;3.33;;;;;;;14.04;90.13;63451.41;5005622;28;20218;-74
2022/05/17 03:59:35;;;;;;;3.63;3.33;;;;;;;14.18;89.80;63462.84;5006933;28;20238;-74
2022/05/17 04:02:02;;;;;;;3.47;3.00;;;;;;;14.23;88.94;63468.03;5001709;28;20206;-74
2022/05/17 04:04:29;;;;;;;4.28;3.60;;;;;;;14.35;89.11;63475.94;5006048;28;20285;-74
2022/05/17 04:06:56;;;;;;;3.15;2.45;;;;;;;14.44;88.95;63487.84;5005344;28;20223;-76
2022/05/17 04:09:22;;;;;;;3.28;3.05;;;;;;;14.58;89.37;63502.34;5006615;28;20435;-76
2022/05/17 04:11:49;;;;;;;3.92;3.25;;;;;;;14.58;88.63;63507.47;5003403;28;20211;-76
2022/05/17 04:14:18;;;;;;;7.32;4.07;;;;;;;14.74;89.21;63518.47;5005031;28;20450;-76
2022/05/17 04:16:45;;;;;;;4.82;3.40;;;;;;;14.88;87.33;63535.56;5010772;28;20251;-76
2022/05/17 04:19:15;;;;;;;5.00;3.53;;;;;;;14.99;86.94;63544.97;5014217;28;20219;-75
2022/05/17 04:21:44;;;;;;;3.60;3.38;;;;;;;15.05;87.85;63553.75;5001921;28;20196;-75
2022/05/17 04:24:11;;;;;;;3.83;3.53;;;;;;;15.18;86.68;63564.19;4985653;28;20247;-76
2022/05/17 04:26:38;;;;;;;3.97;3.60;;;;;;;15.32;86.68;63578.22;4990356;28;20241;-76
2022/05/17 04:29:05;;;;;;;3.67;3.40;;;;;;;15.40;88.92;63589.63;4997340;28;20377;-75
2022/05/17 04:31:33;;;;;;;4.88;3.78;;;;;;;15.30;89.97;63579.22;4987151;28;20203;-76
2022/05/17 04:34:00;;;;;;;4.05;3.63;;;;;;;15.48;89.74;63600.00;5003161;28;20213;-75
2022/05/17 04:36:27;;;;;;;3.78;3.50;;;;;;;15.27;84.81;63573.03;5006586;28;20423;-75
2022/05/17 04:38:54;;;;;;;7.05;4.07;;;;;;;15.19;86.40;63562.13;5006216;28;20223;-76
2022/05/17 04:41:21;;;;;;;9.65;4.90;;;;;;;15.24;85.14;63570.41;5001745;28;20199;-76
2022/05/17 04:43:48;;;;;;;10.05;4.80;;;;;;;15.36;83.55;63585.44;5005262;28;20335;-75
2022/05/17 04:46:15;;;;;;;6.53;4.82;;;;;;;15.40;81.33;63594.75;5004360;28;20206;-76
2022/05/17 04:48:43;;;;;;;9.68;5.75;;;;;;;15.62;81.56;63614.53;4994520;28;20217;-76
2022/05/17 04:51:12;;;;;;;9.30;5.97;;;;;;;15.52;83.48;63599.00;4998002;28;20228;-76
2022/05/17 04:53:40;;;;;;;11.95;5.65;;;;;;;15.35;85.25;63583.88;5008389;28;20199;-76
2022/05/17 04:56:08;;;;;;;13.98;5.55;;;;;;;15.36;85.25;63585.44;5002811;28;20235;-76
2022/05/17 04:58:35;;;;;;;10.27;5.82;;;;;;;15.54;85.72;63604.19;4992373;28;20408;-76
2022/05/17 05:01:02;;;;;;;8.30;5.68;;;;;;;15.57;85.56;63609.34;5003768;28;20230;-76
2022/05/17 05:03:30;;;;;;;11.27;6.00;;;;;;;15.69;86.10;63617.22;5005418;28;20496;-75
2022/05/17 05:05:58;;;;;;;14.73;6.43;;;;;;;15.89;86.58;63635.44;4997949;28;20243;-77
2022/05/17 05:08:25;;;;;;;9.07;5.60;;;;;;;15.95;87.42;63644.25;4995703;28;20233;-77
2022/05/17 05:10:52;;;;;;;8.00;5.70;;;;;;;16.04;86.16;63655.66;4997893;28;20215;-77
2022/05/17 05:13:20;;;;;;;8.48;5.80;;;;;;;16.04;87.74;63653.09;5004602;28;20206;-76
2022/05/17 05:15:47;;;;;;;7.32;5.65;;;;;;;16.20;87.94;63672.31;4993768;28;20223;-76
2022/05/17 05:18:14;;;;;;;9.60;6.30;;;;;;;16.10;85.95;63662.41;4996038;28;20214;-76
2022/05/17 05:20:43;;;;;;;6.97;6.25;;;;;;;16.15;83.45;63664.53;5010865;28;20282;-76
2022/05/17 05:23:12;;;;;;;11.52;5.93;;;;;;;16.22;83.60;63671.28;5007522;28;20431;-75
2022/05/17 05:25:40;;;;;;;5.55;5.00;;;;;;;16.23;82.71;63674.88;4989632;28;20227;-75
2022/05/17 05:28:08;;;;;;;10.52;6.43;;;;;;;16.32;81.92;63684.25;4999111;28;20230;-75
2022/05/17 05:30:36;;;;;;;9.98;6.40;;;;;;;16.58;81.69;63708.75;5000598;28;20219;-75
2022/05/17 05:33:03;;;;;;;6.40;4.72;;;;;;;16.59;77.31;63715.44;5003355;28;20199;-78
2022/05/17 05:35:32;;;;;;;10.68;5.15;;;;;;;16.75;78.04;63729.00;5003830;28;20278;-77
2022/05/17 05:37:59;;;;;;;9.35;5.93;;;;;;;16.89;77.07;63741.00;5013930;28;20404;-77
2022/05/17 05:40:27;;;;;;;9.52;6.05;;;;;;;16.68;77.45;63719.16;5007403;28;20230;-77
2022/05/17 05:42:56;;;;;;;8.00;6.05;;;;;;;16.84;75.36;63740.94;4983920;28;20375;-76
2022/05/17 05:45:23;;;;;;;10.00;5.80;;;;;;;17.04;74.44;63757.13;4997975;28;20554;-76
2022/05/17 05:47:49;;;;;;;10.10;5.45;;;;;;;16.98;73.29;63755.53;4997280;28;20297;-77
2022/05/17 05:50:17;;;;;;;28.08;6.43;;;;;;;17.14;74.24;63769.59;5002192;28;20264;-76
2022/05/17 05:52:44;;;;;;;10.43;5.65;;;;;;;17.30;73.31;63786.78;5021079;28;20198;-77
2022/05/17 05:55:18;;;;;;;9.60;5.13;;;;;;;17.12;71.55;63768.03;4999915;28;20222;-77
2022/05/17 05:57:47;;;;;;;7.70;5.30;;;;;;;17.31;72.00;63787.81;4984956;28;20517;-77
2022/05/17 06:00:15;;;;;;;8.95;5.38;;;;;;;17.36;71.53;63795.06;4985081;28;20226;-77
2022/05/17 06:02:42;;;;;;;16.65;5.72;;;;;;;17.54;71.69;63810.72;4999403;28;20199;-78
2022/05/17 06:05:10;;;;;;;14.07;5.65;;;;;;;17.59;70.84;63816.47;5004985;28;20221;-77
2022/05/17 06:07:37;;;;;;;10.27;5.40;;;;;;;17.91;69.11;63849.28;5003877;28;20249;-77
2022/05/17 06:10:04;;;;;;;9.77;5.68;;;;;;;18.17;69.22;63876.38;5001859;28;20249;-77
2022/05/17 06:12:31;;;;;;;9.85;5.50;;;;;;;18.35;69.30;63892.53;4991020;28;20194;-77
2022/05/17 06:14:59;;;;;;;8.02;5.45;;;;;;;18.09;67.04;63865.44;5002205;28;20226;-77
2022/05/17 06:17:28;;;;;;;12.07;5.85;;;;;;;17.87;66.68;63845.09;5005576;28;20201;-77
2022/05/17 06:19:55;;;;;;;13.63;5.90;;;;;;;18.03;66.67;63859.72;5000702;28;20222;-78
2022/05/17 06:22:23;;;;;;;9.38;4.75;;;;;;;18.18;67.89;63877.41;4997517;28;20205;-76
2022/05/17 06:24:49;;;;;;;8.27;4.50;;;;;;;18.33;65.41;63893.03;5000864;28;20415;-78
2022/05/17 06:27:16;;;;;;;8.18;4.05;;;;;;;18.34;64.25;63899.75;5001012;28;20598;-77
2022/05/17 06:29:43;;;;;;;6.68;4.75;;;;;;;18.52;63.66;63910.25;5002246;28;20226;-77
2022/05/17 06:32:14;;;;;;;4.78;4.32;;;;;;;18.63;61.74;63926.38;4993291;28;20204;-78
2022/05/17 06:34:42;;;;;;;5.25;4.13;;;;;;;18.74;61.24;63938.34;4999561;28;20226;-77
2022/05/17 06:37:10;;;;;;;4.72;4.32;;;;;;;18.95;59.26;63959.72;5006783;28;20254;-77
2022/05/17 06:39:38;;;;;;;6.25;4.07;;;;;;;18.91;60.71;63956.09;5003076;28;20223;-77
2022/05/17 06:42:07;;;;;;;5.97;4.57;;;;;;;18.84;59.63;63943.63;4997375;28;20199;-77
2022/05/17 06:44:34;;;;;;;7.18;4.20;;;;;;;18.67;59.57;63928.50;5023829;28;20214;-78
2022/05/17 06:47:01;;;;;;;5.93;4.45;;;;;;;18.61;60.30;63921.69;5023506;28;20199;-78
2022/05/17 06:49:30;;;;;;;8.88;4.68;;;;;;;18.82;61.46;63949.28;5003634;28;20215;-78
2022/05/17 06:52:00;;;;;;;6.25;3.63;;;;;;;19.04;60.95;63964.47;5006144;28;20213;-78
2022/05/17 06:54:28;;;;;;;7.07;4.55;;;;;;;19.20;60.47;63978.56;5004461;28;20241;-77
2022/05/17 06:56:55;;;;;;;8.93;4.70;;;;;;;19.24;60.49;63993.06;5000429;28;20242;-77
2022/05/17 06:59:22;;;;;;;4.07;3.70;;;;;;;19.24;59.64;63989.97;5004291;28;20269;-77
2022/05/17 07:01:49;;;;;;;4.75;4.30;;;;;;;19.56;60.46;64015.59;5001403;28;20469;-78
2022/05/17 07:04:16;;;;;;;9.65;4.32;;;;;;;19.59;59.93;64023.38;5001122;28;20231;-77
2022/05/17 07:06:45;;;;;;;7.05;4.93;;;;;;;19.32;60.49;63998.31;5007131;28;20506;-77
2022/05/17 07:09:15;;;;;;;8.48;4.45;;;;;;;19.21;59.78;63984.75;4999041;28;20280;-77
2022/05/17 07:14:25;;;;;;;6.03;4.60;;;;;;;19.56;62.30;64023.34;4999190;28;20237;-77
2022/05/17 07:16:53;;;;;;;8.52;5.65;;;;;;;19.82;61.77;64047.34;5014331;28;20417;-78
2022/05/17 07:19:21;;;;;;;6.18;5.20;;;;;;;19.63;63.75;64027.53;5009932;28;20218;-77
2022/05/17 07:22:03;;;;;;;8.55;6.10;;;;;;;19.47;63.02;64008.78;5006807;28;20214;-78
2022/05/17 07:24:31;;;;;;;8.52;4.90;;;;;;;19.70;61.93;64034.84;5008197;28;20218;-77
2022/05/17 07:26:58;;;;;;;12.98;5.32;;;;;;;19.83;62.73;64048.91;5008290;28;20195;-78
2022/05/17 07:29:25;;;;;;;5.93;5.25;;;;;;;19.92;60.37;64060.38;5000141;28;20298;-78
2022/05/17 07:31:52;;;;;;;5.53;4.85;;;;;;;20.15;60.53;64084.91;5007523;28;20194;-77
2022/05/17 07:34:19;;;;;;;10.20;5.68;;;;;;;20.44;59.64;64115.19;5006603;28;20214;-77
2022/05/17 07:36:46;;;;;;;5.40;5.00;;;;;;;20.43;60.43;64111.53;5007813;28;20486;-78
2022/05/17 07:39:15;;;;;;;5.50;5.00;;;;;;;20.64;60.12;64130.34;5007382;28;20226;-77
2022/05/17 07:41:42;;;;;;;10.93;5.65;;;;;;;20.87;57.29;64153.84;5006481;28;20201;-77
2022/05/17 07:44:11;;;;;;;7.40;5.20;;;;;;;20.97;57.20;64172.06;5006399;28;20582;-78
2022/05/17 07:46:38;;;;;;;10.52;5.03;;;;;;;20.70;55.49;64139.22;5000092;28;20274;-77
2022/05/17 07:49:06;;;;;;;6.00;5.32;;;;;;;20.66;58.34;64135.03;4997130;28;20230;-77
2022/05/17 07:51:33;;;;;;;6.70;4.75;;;;;;;20.95;60.27;64162.72;5005896;28;20222;-79
2022/05/17 07:54:00;;;;;;;8.18;5.30;;;;;;;21.11;56.15;64184.63;5009087;28;20202;-78
2022/05/17 07:56:29;;;;;;;7.50;4.97;;;;;;;20.78;54.33;64144.97;5004399;28;20499;-78
2022/05/17 07:58:55;;;;;;;13.43;6.05;;;;;;;20.97;55.03;64164.31;5000744;28;20489;-78
2022/05/17 08:01:22;;;;;;;8.57;5.95;;;;;;;21.02;55.63;64172.13;5006890;28;20226;-78
2022/05/17 08:03:49;;;;;;;9.32;5.55;;;;;;;21.22;54.94;64193.53;5005067;28;20202;-78
2022/05/17 08:06:16;;;;;;;9.70;5.22;;;;;;;21.43;54.64;64215.44;5013801;28;20198;-77
2022/05/17 08:08:43;;;;;;;7.35;4.78;;;;;;;21.65;53.92;64240.50;5025269;28;20229;-78
2022/05/17 08:11:10;;;;;;;10.02;5.57;;;;;;;21.78;52.69;64254.09;5007625;28;20473;-80
2022/05/17 08:13:39;;;;;;;8.27;4.78;;;;;;;21.98;52.61;64275.03;5005175;28;20469;-78
2022/05/17 08:16:06;;;;;;;7.80;5.50;;;;;;;21.92;52.14;64271.34;5008620;28;20536;-78
2022/05/17 08:18:34;;;;;;;8.40;5.22;;;;;;;22.06;51.38;64278.19;5006632;28;20417;-78
2022/05/17 08:21:01;;;;;;;5.30;4.80;;;;;;;21.89;48.88;64265.59;5009069;28;20263;-78
2022/05/17 08:23:28;;;;;;;6.78;5.15;;;;;;;21.85;51.75;64266.59;5003061;28;20400;-79
2022/05/17 08:28:40;;;;;;;6.18;4.72;;;;;;;22.07;47.95;64284.41;4987151;28;20478;-78
2022/05/17 08:31:09;;;;;;;4.82;4.45;;;;;;;22.15;49.39;64290.19;4986327;28;20212;-78
2022/05/17 08:33:38;;;;;;;9.55;5.72;;;;;;;22.09;48.13;64283.91;4990065;28;20227;-78
2022/05/17 08:36:07;;;;;;;11.73;5.35;;;;;;;22.24;48.17;64297.00;4989698;28;20215;-78
2022/05/17 08:38:38;;;;;;;9.95;5.45;;;;;;;22.47;47.79;64330.88;5025782;28;20254;-78
2022/05/17 08:41:11;;;;;;;13.00;5.15;;;;;;;22.57;46.91;64336.19;5015196;28;20285;-77
2022/05/17 08:43:50;;;;;;;15.27;5.38;;;;;;;22.74;46.93;64351.88;4987269;28;20266;-77
2022/05/17 08:46:58;;;;;;;5.05;4.53;;;;;;;22.84;46.13;64361.81;4986851;28;20515;-78
2022/05/17 08:49:27;;;;;;;7.18;4.28;;;;;;;22.90;42.79;64365.47;4987023;28;20238;-78
2022/05/17 08:51:56;;;;;;;7.63;4.22;;;;;;;22.77;42.56;64354.50;5008148;28;20257;-78
2022/05/17 08:54:27;;;;;;;7.28;4.38;;;;;;;22.76;43.79;64350.84;5007109;28;20282;-78
2022/05/17 08:56:58;;;;;;;6.22;4.13;;;;;;;22.76;43.21;64350.84;5004530;28;20213;-78
2022/05/17 08:59:28;;;;;;;4.20;3.85;;;;;;;22.92;43.23;64370.16;5000478;28;20219;-78
2022/05/17 09:02:02;;;;;;;9.65;4.75;;;;;;;23.11;41.66;64392.66;4986002;28;20191;-79
2022/05/17 09:04:48;;;;;;;8.63;4.45;;;;;;;23.08;42.79;64386.38;4987998;28;20224;-78
2022/05/17 09:07:23;;;;;;;6.90;4.15;;;;;;;23.17;44.36;64393.19;4987410;28;20263;-78
2022/05/17 09:10:03;;;;;;;4.75;3.70;;;;;;;23.24;40.09;64406.25;4991771;28;20282;-78
2022/05/17 09:12:42;;;;;;;6.28;3.33;;;;;;;23.21;37.27;64400.00;4988229;28;20203;-79
2022/05/17 09:15:14;;;;;;;6.57;2.60;;;;;;;23.18;34.18;64402.56;4987014;28;20273;-78
2022/05/17 09:17:41;;;;;;;5.20;2.85;;;;;;;23.35;36.01;64417.25;4988625;28;20203;-78
2022/05/17 09:20:10;;;;;;;5.45;3.90;;;;;;;23.31;40.73;64411.00;4988675;28;20219;-78
2022/05/17 09:22:37;;;;;;;3.78;3.17;;;;;;;23.43;39.52;64420.41;4988332;28;20384;-78
2022/05/17 09:25:16;;;;;;;12.35;3.47;;;;;;;23.52;38.23;64435.53;4986145;28;20223;-77
2022/05/17 09:27:48;;;;;;;8.35;3.30;;;;;;;23.57;38.59;64440.78;4989985;28;20203;-78
2022/05/17 09:30:31;;;;;;;4.50;3.22;;;;;;;23.50;37.99;64430.34;4995316;28;20227;-78
2022/05/17 09:33:02;;;;;;;5.18;4.00;;;;;;;23.44;37.02;64429.25;4990000;28;20204;-78
2022/05/17 09:35:29;;;;;;;9.82;3.10;;;;;;;23.58;37.45;64436.63;4990730;28;20229;-79
2022/05/17 09:37:59;;;;;;;3.60;2.72;;;;;;;23.64;35.58;64445.00;5010427;28;20199;-80
2022/05/17 09:40:31;;;;;;;5.53;2.60;;;;;;;23.58;35.52;64439.25;5012845;28;20241;-80
2022/05/17 09:43:04;;;;;;;5.47;2.60;;;;;;;23.46;35.08;64434.47;5012268;28;20261;-80
2022/05/17 09:45:49;;;;;;;9.43;2.13;;;;;;;23.71;32.79;64449.72;5012060;28;20218;-80
2022/05/17 09:48:29;;;;;;;3.72;2.47;;;;;;;23.77;34.84;64461.72;5009568;28;20218;-79
2022/05/17 09:53:44;;;;;;;2.30;2.20;;;;;;;23.82;32.80;64466.41;5011369;28;20246;-77
2022/05/17 09:56:11;;;;;;;2.90;2.70;;;;;;;23.95;32.60;64480.03;5005634;28;20214;-78
2022/05/17 09:58:39;;;;;;;4.50;2.60;;;;;;;24.15;32.68;64500.97;5010111;28;20199;-78
2022/05/17 10:01:17;;;;;;;3.00;2.45;;;;;;;24.18;35.10;64501.50;5003625;28;20234;-77
2022/05/17 10:03:58;;;;;;;4.57;2.53;;;;;;;24.17;32.17;64502.56;5002520;28;20202;-77
2022/05/17 10:06:32;;;;;;;2.28;2.13;;;;;;;24.38;30.68;64529.75;5004995;28;20197;-77
2022/05/17 10:09:01;;;;;;;3.83;2.13;;;;;;;24.54;32.66;64541.28;5001370;28;20241;-78
2022/05/17 10:11:39;;;;;;;2.33;2.22;;;;;;;24.49;30.48;64536.56;4987678;28;20402;-78
2022/05/17 10:14:20;;;;;;;2.20;2.00;;;;;;;24.72;31.00;64558.06;4988976;28;20214;-77
2022/05/17 10:16:51;;;;;;;3.13;1.98;;;;;;;24.94;33.16;64583.19;4984861;28;20195;-77
2022/05/17 10:19:32;;;;;;;2.30;2.10;;;;;;;25.11;32.63;64601.00;5004562;28;20290;-78
2022/05/17 10:22:05;;;;;;;5.10;2.55;;;;;;;25.21;31.44;64608.34;5017273;28;20259;-77
2022/05/17 10:24:42;;;;;;;2.08;1.70;;;;;;;25.36;30.82;64627.22;5013176;28;20289;-77
2022/05/17 10:27:16;;;;;;;2.45;2.30;;;;;;;25.36;32.08;64629.28;5008736;28;20518;-78
2022/05/17 10:29:49;;;;;;;2.65;2.45;;;;;;;25.31;32.86;64619.34;5004491;28;20293;-77
2022/05/17 10:32:23;;;;;;;2.63;2.05;;;;;;;25.36;30.72;64621.44;5006380;28;20205;-78
2022/05/17 10:34:56;;;;;;;3.28;1.90;;;;;;;25.46;29.49;64640.28;5005189;28;20233;-78
2022/05/17 10:37:28;;;;;;;4.55;2.10;;;;;;;25.50;29.59;64644.50;5008324;28;20195;-78
2022/05/17 10:39:58;;;;;;;2.88;2.10;;;;;;;25.28;29.37;64615.69;5005863;28;20227;-77
2022/05/17 10:42:27;;;;;;;2.33;1.85;;;;;;;25.31;29.99;64616.22;4990882;28;20199;-77
2022/05/17 10:44:56;;;;;;;4.30;2.83;;;;;;;25.35;30.70;64626.13;4997419;28;20261;-79
2022/05/17 10:47:33;;;;;;;3.70;2.25;;;;;;;25.34;30.27;64622.50;5005177;28;20214;-78
2022/05/17 10:50:17;;;;;;;2.22;2.03;;;;;;;25.47;31.24;64640.81;4996202;28;20249;-78
2022/05/17 10:52:58;;;;;;;3.58;1.88;;;;;;;25.53;30.10;64645.03;5011775;28;20199;-77
2022/05/17 10:55:32;;;;;;;1.42;1.42;;;;;;;25.54;29.89;64642.94;5005518;28;20386;-78
2022/05/17 10:58:05;;;;;;;8.38;2.20;;;;;;;25.54;30.99;64646.06;5016266;28;20201;-78
2022/05/17 11:00:37;;;;;;;3.58;2.33;;;;;;;25.43;31.30;64636.63;5027800;28;20225;-77
2022/05/17 11:03:42;;;;;;;3.47;2.60;;;;;;;25.13;30.59;64606.22;5027077;28;20487;-77
2022/05/17 11:06:22;;;;;;;2.97;1.85;;;;;;;25.48;31.54;64636.66;4989094;28;20234;-77
2022/05/17 11:09:05;;;;;;;2.92;1.67;;;;;;;25.39;32.05;64625.13;5009361;28;20518;-77
2022/05/17 11:11:49;;;;;;;3.50;2.00;;;;;;;25.59;32.19;64648.19;5011545;28;20266;-77
2022/05/17 11:14:23;;;;;;;2.78;1.90;;;;;;;25.52;32.44;64643.44;5002147;28;20581;-78
2022/05/17 11:16:58;;;;;;;2.53;1.67;;;;;;;25.37;31.78;64625.13;5006261;28;20190;-78
2022/05/17 11:19:33;;;;;;;2.78;2.25;;;;;;;25.69;31.23;64661.28;5009973;28;20272;-78
2022/05/17 11:22:06;;;;;;;5.60;2.15;;;;;;;25.90;32.06;64686.41;5011003;28;20196;-78
2022/05/17 11:25:10;;;;;;;5.80;2.30;;;;;;;25.73;31.14;64665.97;5009198;28;20248;-78
2022/05/17 11:27:53;;;;;;;3.35;1.98;;;;;;;25.81;30.84;64673.84;5009114;28;20221;-78
2022/05/17 11:30:26;;;;;;;3.08;2.10;;;;;;;25.56;30.91;64648.16;5009854;28;20230;-78
2022/05/17 11:33:32;;;;;;;3.40;2.08;;;;;;;25.62;31.78;64654.47;5005506;28;20420;-79
2022/05/17 11:36:02;;;;;;;3.63;2.15;;;;;;;25.82;32.48;64675.41;5015529;28;20218;-78
2022/05/17 11:38:52;;;;;;;2.30;2.10;;;;;;;25.81;31.50;64676.97;5028972;28;20205;-77
2022/05/17 11:41:42;;;;;;;3.53;1.92;;;;;;;25.78;30.64;64670.69;5010063;28;20206;-78
2022/05/17 11:44:40;;;;;;;2.03;1.92;;;;;;;26.07;31.07;64704.25;5011098;28;20226;-79
2022/05/17 11:47:28;;;;;;;2.85;1.95;;;;;;;26.07;30.33;64701.66;5005859;28;20187;-77
2022/05/17 11:50:22;;;;;;;2.40;2.30;;;;;;;26.13;30.50;64707.94;4999004;28;20437;-78
2022/05/17 11:53:21;;;;;;;2.72;2.38;;;;;;;26.15;30.98;64712.63;5006782;28;20221;-78
2022/05/17 11:56:17;;;;;;;2.42;2.22;;;;;;;26.02;31.63;64701.59;5008877;28;20234;-78
2022/05/17 11:58:52;;;;;;;5.68;2.70;;;;;;;26.14;31.14;64711.56;5011866;28;20229;-79